createdAt,value
2018-09-26T00:01:21.939Z,68.99
2018-09-26T00:03:53.242Z,68.71
2018-09-26T00:06:20.817Z,69.21
2018-09-26T00:08:49.884Z,69.22
2018-09-26T00:11:17.635Z,69.23
2018-09-26T00:13:46.334Z,69.40
2018-09-26T00:16:14.812Z,68.82
2018-09-26T00:18:42.365Z,69.30
2018-09-26T00:21:11.078Z,69.00
2018-09-26T00:23:38.658Z,69.38
2018-09-26T00:26:07.414Z,69.05
2018-09-26T00:28:34.971Z,69.17
2018-09-26T00:31:02.991Z,68.82
2018-09-26T00:33:31.331Z,69.20
2018-09-26T00:35:59.005Z,69.42
2018-09-26T00:38:26.995Z,69.22
2018-09-26T00:40:54.598Z,69.10
2018-09-26T00:43:23.465Z,69.85
2018-09-26T00:45:52.850Z,69.51
2018-09-26T00:48:20.370Z,69.15
2018-09-26T00:50:51.558Z,69.63
2018-09-26T00:53:19.178Z,70.34
2018-09-26T00:55:47.930Z,69.86
2018-09-26T00:58:16.478Z,69.98
2018-09-26T01:00:53.049Z,71.19
2018-09-26T01:03:20.916Z,70.56
2018-09-26T01:05:48.540Z,70.61
2018-09-26T01:08:16.393Z,70.70
2018-09-26T01:10:43.977Z,70.76
2018-09-26T01:13:11.543Z,70.71
2018-09-26T01:15:41.416Z,70.07
2018-09-26T01:18:08.983Z,70.61
2018-09-26T01:20:37.115Z,70.67
2018-09-26T01:23:05.055Z,71.07
2018-09-26T01:25:34.640Z,70.48
2018-09-26T01:28:02.221Z,70.60
2018-09-26T01:30:32.278Z,69.88
2018-09-26T01:32:59.835Z,70.07
2018-09-26T01:35:27.395Z,69.62
2018-09-26T01:37:55.490Z,69.79
2018-09-26T01:40:24.015Z,69.65
2018-09-26T01:42:51.627Z,70.01
2018-09-26T01:45:20.006Z,69.67
2018-09-26T01:47:47.610Z,69.82
2018-09-26T01:50:15.161Z,69.53
2018-09-26T01:52:44.306Z,69.50
2018-09-26T01:55:11.895Z,69.11
2018-09-26T01:57:45.061Z,69.21
2018-09-26T02:00:15.151Z,69.33
2018-09-26T02:02:42.702Z,69.51
2018-09-26T02:05:10.294Z,69.91
2018-09-26T02:07:38.333Z,70.36
2018-09-26T02:10:05.869Z,70.00
2018-09-26T02:12:33.392Z,69.96
2018-09-26T02:15:00.910Z,69.84
2018-09-26T02:17:28.395Z,69.55
2018-09-26T02:19:55.912Z,69.95
2018-09-26T02:22:23.465Z,70.00
2018-09-26T02:24:51.013Z,69.85
2018-09-26T02:27:18.566Z,69.77
2018-09-26T02:29:46.097Z,69.91
2018-09-26T02:32:13.606Z,69.96
2018-09-26T02:34:41.135Z,70.31
2018-09-26T02:37:09.876Z,69.77
2018-09-26T02:39:37.545Z,69.83
2018-09-26T02:42:05.109Z,70.11
2018-09-26T02:44:32.635Z,69.70
2018-09-26T02:47:00.157Z,69.84
2018-09-26T02:49:27.680Z,70.15
2018-09-26T02:51:55.209Z,69.84
2018-09-26T02:54:22.780Z,69.88
2018-09-26T02:56:50.749Z,70.14
2018-09-26T02:59:18.297Z,70.44
2018-09-26T03:01:46.577Z,70.60
2018-09-26T03:04:14.126Z,70.57
2018-09-26T03:06:41.769Z,70.68
2018-09-26T03:09:10.348Z,70.01
2018-09-26T03:11:38.373Z,70.48
2018-09-26T03:14:05.913Z,70.63
2018-09-26T03:16:33.993Z,70.97
2018-09-26T03:19:01.612Z,70.07
2018-09-26T03:21:29.180Z,70.39
2018-09-26T03:23:56.696Z,70.17
2018-09-26T03:26:24.608Z,70.36
2018-09-26T03:28:52.133Z,69.48
2018-09-26T03:31:19.670Z,69.94
2018-09-26T03:33:47.671Z,69.71
2018-09-26T03:36:15.139Z,70.07
2018-09-26T03:38:43.298Z,69.39
2018-09-26T03:41:12.220Z,70.05
2018-09-26T03:43:39.797Z,69.44
2018-09-26T03:46:08.346Z,70.16
2018-09-26T03:48:35.905Z,69.73
2018-09-26T03:51:03.480Z,69.70
2018-09-26T03:53:31.017Z,69.77
2018-09-26T03:55:58.554Z,69.70
2018-09-26T03:58:26.114Z,69.86
2018-09-26T04:00:53.662Z,69.71
2018-09-26T04:03:23.604Z,69.61
2018-09-26T04:05:51.120Z,69.71
2018-09-26T04:08:18.638Z,69.51
2018-09-26T04:10:46.563Z,70.01
2018-09-26T04:13:14.165Z,70.31
2018-09-26T04:15:47.803Z,70.40
2018-09-26T04:18:15.716Z,70.14
2018-09-26T04:20:43.290Z,70.00
2018-09-26T04:23:10.804Z,70.03
2018-09-26T04:25:38.788Z,70.01
2018-09-26T04:28:06.376Z,70.24
2018-09-26T04:30:34.039Z,69.69
2018-09-26T04:33:02.106Z,70.37
2018-09-26T04:35:29.497Z,70.22
2018-09-26T04:37:57.021Z,70.07
2018-09-26T04:40:24.867Z,69.86
2018-09-26T04:42:52.385Z,70.03
2018-09-26T04:45:21.249Z,70.57
2018-09-26T04:47:49.095Z,70.29
2018-09-26T04:50:16.605Z,70.29
2018-09-26T04:52:45.970Z,70.20
2018-09-26T04:55:14.452Z,69.56
2018-09-26T04:57:42.011Z,69.73
2018-09-26T05:00:09.539Z,68.50
2018-09-26T05:02:37.413Z,68.41
2018-09-26T05:05:04.989Z,67.80
2018-09-26T05:07:32.531Z,67.84
2018-09-26T05:10:00.552Z,67.33
2018-09-26T05:12:28.661Z,67.50
2018-09-26T05:14:56.190Z,67.53
2018-09-26T05:17:24.098Z,68.06
2018-09-26T05:19:51.760Z,68.54
2018-09-26T05:22:19.936Z,69.43
2018-09-26T05:24:48.584Z,69.59
2018-09-26T05:27:16.104Z,69.48
2018-09-26T05:29:43.661Z,69.83
2018-09-26T05:32:11.630Z,69.85
2018-09-26T05:34:39.144Z,69.88
2018-09-26T05:37:06.735Z,69.87
2018-09-26T05:39:35.528Z,69.79
2018-09-26T05:42:03.117Z,69.82
2018-09-26T05:44:31.247Z,69.79
2018-09-26T05:46:59.398Z,69.73
2018-09-26T05:49:26.966Z,69.73
2018-09-26T05:51:54.530Z,70.16
2018-09-26T05:54:22.497Z,69.68
2018-09-26T05:56:49.996Z,69.52
2018-09-26T05:59:17.541Z,69.77
2018-09-26T06:01:45.528Z,70.17
2018-09-26T06:04:13.083Z,69.72
2018-09-26T06:06:40.599Z,69.87
2018-09-26T06:09:09.755Z,69.14
2018-09-26T06:11:37.307Z,69.55
2018-09-26T06:14:04.940Z,69.11
2018-09-26T06:16:32.957Z,69.38
2018-09-26T06:19:00.496Z,68.69
2018-09-26T06:21:28.081Z,68.99
2018-09-26T06:23:57.015Z,68.70
2018-09-26T06:26:24.580Z,67.79
2018-09-26T06:28:52.144Z,68.22
2018-09-26T06:31:20.092Z,67.68
2018-09-26T06:33:47.660Z,67.56
2018-09-26T06:36:15.201Z,67.15
2018-09-26T06:38:44.045Z,66.91
2018-09-26T06:41:11.760Z,66.40
2018-09-26T06:43:39.309Z,66.06
2018-09-26T06:46:08.155Z,66.52
2018-09-26T06:48:35.657Z,66.41
2018-09-26T06:51:04.149Z,66.59
2018-09-26T06:53:34.029Z,65.62
2018-09-26T06:56:01.581Z,65.63
2018-09-26T06:58:29.101Z,65.85
2018-09-26T07:00:57.096Z,65.28
2018-09-26T07:03:24.669Z,65.51
2018-09-26T07:05:52.168Z,64.99
2018-09-26T07:08:21.707Z,65.02
2018-09-26T07:10:49.288Z,64.54
2018-09-26T07:13:18.070Z,63.39
2018-09-26T07:15:46.017Z,63.46
2018-09-26T07:18:13.549Z,63.54
2018-09-26T07:20:41.870Z,63.38
2018-09-26T07:23:09.867Z,62.75
2018-09-26T07:25:37.462Z,62.54
2018-09-26T07:28:04.995Z,62.17
2018-09-26T07:30:34.973Z,61.24
2018-09-26T07:33:02.512Z,60.94
2018-09-26T07:35:34.578Z,60.79
2018-09-26T07:38:03.481Z,60.12
2018-09-26T07:40:32.560Z,60.52
2018-09-26T07:43:03.232Z,60.00
2018-09-26T07:45:30.780Z,59.49
2018-09-26T07:47:58.341Z,59.19
2018-09-26T07:50:27.012Z,58.73
2018-09-26T07:52:54.701Z,58.03
2018-09-26T07:55:22.223Z,59.14
2018-09-26T07:57:50.092Z,58.86
2018-09-26T08:00:17.695Z,58.65
2018-09-26T08:02:45.301Z,58.55
2018-09-26T08:05:13.237Z,58.31
2018-09-26T08:07:40.803Z,57.39
2018-09-26T08:10:08.382Z,57.62
2018-09-26T08:12:38.574Z,57.13
2018-09-26T08:15:06.101Z,56.92
2018-09-26T08:17:34.757Z,56.80
2018-09-26T08:20:03.251Z,56.74
2018-09-26T08:22:30.771Z,55.59
2018-09-26T08:24:59.344Z,55.67
2018-09-26T08:27:29.020Z,55.28
2018-09-26T08:29:57.594Z,54.61
2018-09-26T08:32:25.109Z,54.24
2018-09-26T08:34:53.968Z,54.15
2018-09-26T08:37:22.159Z,53.33
2018-09-26T08:39:50.836Z,52.68
2018-09-26T08:42:20.708Z,52.00
2018-09-26T08:44:48.353Z,52.02
2018-09-26T08:47:15.909Z,51.12
2018-09-26T08:49:46.733Z,50.42
2018-09-26T08:52:14.274Z,50.28
2018-09-26T08:54:41.800Z,49.83
2018-09-26T08:57:10.761Z,50.14
2018-09-26T08:59:38.943Z,49.19
2018-09-26T09:02:07.209Z,48.99
2018-09-26T09:04:35.147Z,48.72
2018-09-26T09:07:02.701Z,48.20
2018-09-26T09:09:30.255Z,47.67
2018-09-26T09:11:58.252Z,48.29
2018-09-26T09:14:26.913Z,47.32
2018-09-26T09:16:54.466Z,47.14
2018-09-26T09:19:22.569Z,47.59
2018-09-26T09:21:50.157Z,46.75
2018-09-26T09:24:17.745Z,46.54
2018-09-26T09:26:46.106Z,46.51
2018-09-26T09:29:15.528Z,46.77
2018-09-26T09:31:43.030Z,46.69
2018-09-26T09:34:12.821Z,45.58
2018-09-26T09:36:40.462Z,45.98
2018-09-26T09:39:08.941Z,46.00
2018-09-26T09:41:37.772Z,45.16
2018-09-26T09:44:05.338Z,45.62
2018-09-26T09:46:32.932Z,45.15
2018-09-26T09:49:00.894Z,44.76
2018-09-26T09:51:28.488Z,44.81
2018-09-26T09:53:56.029Z,45.21
2018-09-26T09:56:28.193Z,44.22
2018-09-26T09:58:55.721Z,44.34
2018-09-26T10:01:29.062Z,43.25
2018-09-26T10:03:58.582Z,42.66
2018-09-26T10:06:26.210Z,41.85
2018-09-26T10:08:55.034Z,41.70
2018-09-26T10:11:23.673Z,41.71
2018-09-26T10:13:51.421Z,41.68
2018-09-26T10:16:20.087Z,42.04
2018-09-26T10:18:50.151Z,42.70
2018-09-26T10:21:19.156Z,42.60
2018-09-26T10:23:46.681Z,42.42
2018-09-26T10:26:14.585Z,42.24
2018-09-26T10:28:43.285Z,40.87
2018-09-26T10:31:12.499Z,40.99
2018-09-26T10:33:43.361Z,41.09
2018-09-26T10:36:11.613Z,41.50
2018-09-26T10:38:39.992Z,41.37
2018-09-26T10:41:08.588Z,42.22
2018-09-26T10:43:36.758Z,42.52
2018-09-26T10:46:04.356Z,43.40
2018-09-26T10:48:33.123Z,43.09
2018-09-26T10:51:03.669Z,43.25
2018-09-26T10:53:32.391Z,42.59
2018-09-26T10:56:00.580Z,42.50
2018-09-26T10:58:28.119Z,42.52
2018-09-26T11:00:55.658Z,42.65
2018-09-26T11:03:23.497Z,42.91
2018-09-26T11:05:51.749Z,41.98
2018-09-26T11:08:20.817Z,42.34
2018-09-26T11:10:50.112Z,41.70
2018-09-26T11:13:19.318Z,41.45
2018-09-26T11:15:46.870Z,40.87
2018-09-26T11:18:15.208Z,39.69
2018-09-26T11:20:42.955Z,39.42
2018-09-26T11:23:11.088Z,39.21
2018-09-26T11:25:39.913Z,38.92
2018-09-26T11:28:08.731Z,38.94
2018-09-26T11:30:36.285Z,38.39
2018-09-26T11:33:05.349Z,38.00
2018-09-26T11:35:32.857Z,37.89
2018-09-26T11:38:00.444Z,37.93
2018-09-26T11:40:29.286Z,37.22
2018-09-26T11:42:57.713Z,37.54
2018-09-26T11:45:25.539Z,36.39
2018-09-26T11:47:53.520Z,36.62
2018-09-26T11:50:21.339Z,35.75
2018-09-26T11:52:48.961Z,35.76
2018-09-26T11:55:16.910Z,35.40
2018-09-26T11:57:44.524Z,34.67
2018-09-26T12:00:12.167Z,33.60
2018-09-26T12:02:40.274Z,34.04
2018-09-26T12:05:07.827Z,33.40
2018-09-26T12:07:35.791Z,32.75
2018-09-26T12:10:03.658Z,32.65
2018-09-26T12:12:32.267Z,31.06
2018-09-26T12:14:59.938Z,31.97
2018-09-26T12:17:27.768Z,31.31
2018-09-26T12:19:55.313Z,31.56
2018-09-26T12:22:23.881Z,30.79
2018-09-26T12:24:52.750Z,30.94
2018-09-26T12:27:20.291Z,31.08
2018-09-26T12:29:49.991Z,30.82
2018-09-26T12:32:19.665Z,31.69
2018-09-26T12:34:47.913Z,31.98
2018-09-26T12:37:15.508Z,32.03
2018-09-26T12:39:44.517Z,32.74
2018-09-26T12:42:12.184Z,33.66
2018-09-26T12:44:41.511Z,34.72
2018-09-26T12:47:11.734Z,35.88
2018-09-26T12:49:40.864Z,36.79
2018-09-26T12:52:09.521Z,37.82
2018-09-26T12:54:37.084Z,37.76
2018-09-26T12:57:06.064Z,38.56
2018-09-26T12:59:33.884Z,37.88
2018-09-26T13:02:01.446Z,37.98
2018-09-26T13:04:29.081Z,38.59
2018-09-26T13:06:57.014Z,38.30
2018-09-26T13:09:24.567Z,39.15
2018-09-26T13:11:52.371Z,38.66
2018-09-26T13:14:21.716Z,38.63
2018-09-26T13:16:49.261Z,38.76
2018-09-26T13:19:16.826Z,39.40
2018-09-26T13:21:47.740Z,38.95
2018-09-26T13:24:15.755Z,38.93
2018-09-26T13:26:44.333Z,38.59
2018-09-26T13:29:13.256Z,38.54
2018-09-26T13:31:40.761Z,38.43
2018-09-26T13:34:08.304Z,39.17
2018-09-26T13:36:40.792Z,38.00
2018-09-26T13:39:10.877Z,38.43
2018-09-26T13:41:39.470Z,37.53
2018-09-26T13:44:07.492Z,38.22
2018-09-26T13:46:36.866Z,37.57
2018-09-26T13:49:04.901Z,37.14
2018-09-26T13:51:33.803Z,37.17
2018-09-26T13:54:01.389Z,37.38
2018-09-26T13:56:29.592Z,37.59
2018-09-26T13:58:58.770Z,37.10
2018-09-26T14:01:26.334Z,36.84
2018-09-26T14:03:54.704Z,36.76
2018-09-26T14:06:22.685Z,37.09
2018-09-26T14:08:50.238Z,36.73
2018-09-26T14:11:19.421Z,36.72
2018-09-26T14:13:48.036Z,36.10
2018-09-26T14:16:15.576Z,36.48
2018-09-26T14:18:43.146Z,35.77
2018-09-26T14:21:11.021Z,35.98
2018-09-26T14:23:39.356Z,35.62
2018-09-26T14:26:06.888Z,35.86
2018-09-26T14:28:35.842Z,35.18
2018-09-26T14:31:04.737Z,35.91
2018-09-26T14:33:32.337Z,35.17
2018-09-26T14:36:01.068Z,35.40
2018-09-26T14:38:31.596Z,34.85
2018-09-26T14:40:59.145Z,34.83
2018-09-26T14:43:27.453Z,35.43
2018-09-26T14:45:55.031Z,34.51
2018-09-26T14:48:23.606Z,35.39
2018-09-26T14:50:51.548Z,34.94
2018-09-26T14:53:21.072Z,34.69
2018-09-26T14:55:49.613Z,34.94
2018-09-26T14:58:18.396Z,35.85
2018-09-26T15:00:48.281Z,35.75
2018-09-26T15:03:16.444Z,35.66
2018-09-26T15:05:44.392Z,35.00
2018-09-26T15:08:14.944Z,35.23
2018-09-26T15:10:42.467Z,34.50
2018-09-26T15:13:10.334Z,34.72
2018-09-26T15:15:37.897Z,34.46
2018-09-26T15:18:05.457Z,33.83
2018-09-26T15:20:34.671Z,33.12
2018-09-26T15:23:02.229Z,32.72
2018-09-26T15:25:29.805Z,33.08
2018-09-26T15:27:57.902Z,32.75
2018-09-26T15:30:25.500Z,31.98
2018-09-26T15:32:53.299Z,32.32
2018-09-26T15:35:22.388Z,31.64
2018-09-26T15:37:50.198Z,32.25
2018-09-26T15:40:18.552Z,32.90
2018-09-26T15:42:48.097Z,32.64
2018-09-26T15:45:16.340Z,33.47
2018-09-26T15:47:44.494Z,34.35
2018-09-26T15:50:15.613Z,34.27
2018-09-26T15:52:44.190Z,35.51
2018-09-26T15:55:11.755Z,35.32
2018-09-26T15:57:46.021Z,36.15
2018-09-26T16:00:13.562Z,36.61
2018-09-26T16:02:41.116Z,36.57
2018-09-26T16:05:08.963Z,36.54
2018-09-26T16:07:36.484Z,36.87
2018-09-26T16:10:06.159Z,37.00
2018-09-26T16:12:34.061Z,37.30
2018-09-26T16:15:02.473Z,37.43
2018-09-26T16:17:30.945Z,38.22
2018-09-26T16:19:59.777Z,38.30
2018-09-26T16:22:27.441Z,37.95
2018-09-26T16:24:55.222Z,37.83
2018-09-26T16:27:24.545Z,38.38
2018-09-26T16:29:52.073Z,38.83
2018-09-26T16:32:20.574Z,38.92
2018-09-26T16:34:50.509Z,38.40
2018-09-26T16:37:18.048Z,38.60
2018-09-26T16:39:46.262Z,38.35
2018-09-26T16:42:15.245Z,38.54
2018-09-26T16:44:42.813Z,38.53
2018-09-26T16:47:11.239Z,39.07
2018-09-26T16:49:40.012Z,39.35
2018-09-26T16:52:07.602Z,38.76
2018-09-26T16:54:35.108Z,39.64
2018-09-26T16:57:03.962Z,39.56
2018-09-26T16:59:31.518Z,39.67
2018-09-26T17:02:00.069Z,39.40
2018-09-26T17:04:29.791Z,39.77
2018-09-26T17:06:58.259Z,39.78
2018-09-26T17:09:25.804Z,40.16
2018-09-26T17:11:56.232Z,40.58
2018-09-26T17:14:23.817Z,40.43
2018-09-26T17:16:52.413Z,40.30
2018-09-26T17:19:20.594Z,40.18
2018-09-26T17:21:48.715Z,40.45
2018-09-26T17:24:16.664Z,40.56
2018-09-26T17:26:44.161Z,41.05
2018-09-26T17:29:11.736Z,41.63
2018-09-26T17:31:44.279Z,41.23
2018-09-26T17:34:15.939Z,41.00
2018-09-26T17:36:44.225Z,41.22
2018-09-26T17:39:13.514Z,41.83
2018-09-26T17:41:41.947Z,41.54
2018-09-26T17:44:10.116Z,42.01
2018-09-26T17:46:38.249Z,41.51
2018-09-26T17:49:05.803Z,42.27
2018-09-26T17:51:33.481Z,42.54
2018-09-26T17:54:02.435Z,41.68
2018-09-26T17:56:32.611Z,42.40
2018-09-26T17:59:02.227Z,42.07
2018-09-26T18:01:30.909Z,42.49
2018-09-26T18:06:30.056Z,42.42
2018-09-26T18:08:58.874Z,42.12
2018-09-26T18:11:27.392Z,42.42
2018-09-26T18:13:54.935Z,43.25
2018-09-26T18:16:26.816Z,42.79
2018-09-26T18:18:54.534Z,43.47
2018-09-26T18:21:22.621Z,43.43
2018-09-26T18:23:51.303Z,43.54
2018-09-26T18:26:18.836Z,44.20
2018-09-26T18:28:48.514Z,44.03
2018-09-26T18:31:16.414Z,44.73
2018-09-26T18:33:44.951Z,44.58
2018-09-26T18:36:13.333Z,45.02
2018-09-26T18:38:44.442Z,44.75
2018-09-26T18:41:12.765Z,45.54
2018-09-26T18:43:40.322Z,44.91
2018-09-26T18:46:08.262Z,44.90
2018-09-26T18:48:35.793Z,45.97
2018-09-26T18:51:07.139Z,45.54
2018-09-26T18:53:36.427Z,45.94
2018-09-26T18:56:04.157Z,46.16
2018-09-26T18:58:33.368Z,46.50
2018-09-26T19:01:03.561Z,46.60
2018-09-26T19:03:34.235Z,46.47
2018-09-26T19:06:03.100Z,46.20
2018-09-26T19:08:39.661Z,45.95
2018-09-26T19:11:07.877Z,46.98
2018-09-26T19:13:38.263Z,46.79
2018-09-26T19:16:08.889Z,46.76
2018-09-26T19:18:37.270Z,47.06
2018-09-26T19:21:05.939Z,46.70
2018-09-26T19:23:34.495Z,46.49
2018-09-26T19:26:04.771Z,46.38
2018-09-26T19:28:33.856Z,46.72
2018-09-26T19:31:02.677Z,47.15
2018-09-26T19:33:30.510Z,46.70
2018-09-26T19:35:58.069Z,46.81
2018-09-26T19:38:27.250Z,47.16
2018-09-26T19:40:58.247Z,47.29
2018-09-26T19:43:29.625Z,47.21
2018-09-26T19:45:58.416Z,46.80
2018-09-26T19:48:26.977Z,47.24
2018-09-26T19:50:56.303Z,47.33
2018-09-26T19:53:25.094Z,47.73
2018-09-26T19:55:53.273Z,47.02
2018-09-26T19:58:22.144Z,47.63
2018-09-26T20:01:01.048Z,47.33
2018-09-26T20:03:29.593Z,47.69
2018-09-26T20:05:59.474Z,48.51
2018-09-26T20:08:31.204Z,47.89
2018-09-26T20:10:59.777Z,48.18
2018-09-26T20:13:27.398Z,48.06
2018-09-26T20:15:55.384Z,48.09
2018-09-26T20:18:25.929Z,48.22
2018-09-26T20:20:53.530Z,48.27
2018-09-26T20:23:23.754Z,48.81
2018-09-26T20:25:53.023Z,49.21
2018-09-26T20:28:21.537Z,49.26
2018-09-26T20:30:50.423Z,49.10
2018-09-26T20:33:18.267Z,48.82
2018-09-26T20:35:46.414Z,48.94
2018-09-26T20:38:16.106Z,49.56
2018-09-26T20:40:43.730Z,49.13
2018-09-26T20:43:11.551Z,50.03
2018-09-26T20:45:39.401Z,49.82
2018-09-26T20:48:07.589Z,50.00
2018-09-26T20:50:35.561Z,50.12
2018-09-26T20:53:03.530Z,49.62
2018-09-26T20:55:31.069Z,50.02
2018-09-26T20:57:59.615Z,49.53
2018-09-26T21:00:27.542Z,49.90
2018-09-26T21:02:57.201Z,49.17
2018-09-26T21:05:24.782Z,50.16
2018-09-26T21:10:27.596Z,50.07
2018-09-26T21:12:56.628Z,49.94
2018-09-26T21:15:27.985Z,50.31
2018-09-26T21:17:55.557Z,50.49
2018-09-26T21:20:25.400Z,50.68
2018-09-26T21:22:53.316Z,50.79
2018-09-26T21:25:20.845Z,50.36
2018-09-26T21:27:49.337Z,50.41
2018-09-26T21:30:17.717Z,50.55
2018-09-26T21:32:46.603Z,51.09
2018-09-26T21:35:16.999Z,50.81
2018-09-26T21:37:45.486Z,51.08
2018-09-26T21:40:13.505Z,51.28
2018-09-26T21:42:42.089Z,50.84
2018-09-26T21:45:09.681Z,51.45
2018-09-26T21:47:38.343Z,51.73
2018-09-26T21:50:06.927Z,51.39
2018-09-26T21:52:35.452Z,50.95
2018-09-26T21:55:03.432Z,51.03
2018-09-26T21:57:33.002Z,51.55
2018-09-26T22:00:00.660Z,51.93
2018-09-26T22:02:29.289Z,52.72
2018-09-26T22:04:56.849Z,51.78
2018-09-26T22:07:24.364Z,52.37
2018-09-26T22:09:52.281Z,52.06
2018-09-26T22:12:19.796Z,52.17
2018-09-26T22:14:47.292Z,51.35
2018-09-26T22:17:15.211Z,51.69
2018-09-26T22:19:42.776Z,51.70
2018-09-26T22:22:10.344Z,51.66
2018-09-26T22:24:38.325Z,51.56
2018-09-26T22:27:05.860Z,52.07
2018-09-26T22:29:33.402Z,51.76
2018-09-26T22:32:01.397Z,52.39
2018-09-26T22:34:29.018Z,52.55
2018-09-26T22:36:57.190Z,52.75
2018-09-26T22:39:25.140Z,52.84
2018-09-26T22:41:53.663Z,52.57
2018-09-26T22:44:22.312Z,52.22
2018-09-26T22:46:51.013Z,52.63
2018-09-26T22:49:18.578Z,52.55
2018-09-26T22:51:46.983Z,52.44
2018-09-26T22:54:14.611Z,53.36
2018-09-26T22:56:42.692Z,52.82
2018-09-26T22:59:11.261Z,53.17
2018-09-26T23:01:40.823Z,53.20
2018-09-26T23:04:08.550Z,53.45
2018-09-26T23:06:36.103Z,53.40
2018-09-26T23:09:05.278Z,53.97
2018-09-26T23:11:33.423Z,53.33
2018-09-26T23:14:01.518Z,53.76
2018-09-26T23:16:29.460Z,53.91
2018-09-26T23:18:57.000Z,54.08
2018-09-26T23:21:25.384Z,53.83
2018-09-26T23:23:53.361Z,54.24
2018-09-26T23:26:20.868Z,54.11
2018-09-26T23:28:48.454Z,53.99
2018-09-26T23:31:16.351Z,54.35
2018-09-26T23:33:43.858Z,54.67
2018-09-26T23:36:11.393Z,53.89
2018-09-26T23:38:39.236Z,53.84
2018-09-26T23:41:06.763Z,54.85
2018-09-26T23:43:34.308Z,54.56
2018-09-26T23:46:02.210Z,54.70
2018-09-26T23:48:30.426Z,54.74
2018-09-26T23:50:58.009Z,55.11
2018-09-26T23:53:25.568Z,54.32
2018-09-26T23:55:53.077Z,54.56
2018-09-26T23:58:21.256Z,54.94
